createdAt,value
2017-12-02T00:00:38.930Z,39.6
2017-12-02T00:01:40.517Z,39.7
2017-12-02T00:02:42.414Z,39.5
2017-12-02T00:03:43.759Z,39.6
2017-12-02T00:04:45.656Z,39.8
2017-12-02T00:05:47.550Z,39.6
2017-12-02T00:06:49.167Z,39.7
2017-12-02T00:07:49.936Z,39.6
2017-12-02T00:08:51.556Z,39.6
2017-12-02T00:09:53.453Z,39.6
2017-12-02T00:10:55.107Z,39.9
2017-12-02T00:11:57.054Z,40
2017-12-02T00:12:58.951Z,39.9
2017-12-02T00:14:00.270Z,39.8
2017-12-02T00:15:01.888Z,39.9
2017-12-02T00:16:03.782Z,39.7
2017-12-02T00:17:05.678Z,40
2017-12-02T00:18:07.574Z,39.7
2017-12-02T00:19:09.192Z,39.8
2017-12-02T00:20:10.789Z,39.9
2017-12-02T00:21:12.713Z,39.9
2017-12-02T00:22:14.311Z,39.6
2017-12-02T00:23:15.354Z,39.6
2017-12-02T00:24:16.673Z,39.5
2017-12-02T00:25:18.569Z,39.5
2017-12-02T00:26:19.909Z,39.5
2017-12-02T00:27:21.506Z,39.8
2017-12-02T00:28:22.828Z,39.9
2017-12-02T00:29:24.724Z,39.7
2017-12-02T00:30:26.619Z,39.2
2017-12-02T00:31:28.517Z,39.9
2017-12-02T00:32:30.131Z,39.8
2017-12-02T00:33:32.026Z,39.7
2017-12-02T00:34:33.088Z,39.6
2017-12-02T00:35:34.703Z,39.7
2017-12-02T00:36:36.324Z,39.5
2017-12-02T00:37:38.220Z,39.7
2017-12-02T00:38:40.115Z,39.6
2017-12-02T00:39:41.735Z,39.5
2017-12-02T00:40:43.358Z,39.5
2017-12-02T00:41:45.298Z,39.5
2017-12-02T00:42:46.621Z,39.6
2017-12-02T00:43:47.944Z,39.6
2017-12-02T00:44:49.265Z,39.5
2017-12-02T00:45:50.865Z,39.5
2017-12-02T00:46:52.207Z,39.6
2017-12-02T00:47:54.103Z,39.5
2017-12-02T00:48:55.721Z,39.6
2017-12-02T00:49:57.620Z,39.5
2017-12-02T00:50:58.960Z,39.4
2017-12-02T00:52:00.284Z,39.5
2017-12-02T00:53:01.901Z,39.6
2017-12-02T00:54:03.226Z,39.4
2017-12-02T00:55:04.845Z,39.7
2017-12-02T00:56:06.744Z,39.5
2017-12-02T00:57:08.343Z,39.3
2017-12-02T00:58:09.664Z,39.5
2017-12-02T00:59:11.283Z,39.3
2017-12-02T01:00:12.326Z,39.6
2017-12-02T01:01:14.224Z,39.5
2017-12-02T01:02:15.841Z,39.7
2017-12-02T01:03:17.161Z,39.5
2017-12-02T01:04:18.503Z,39.5
2017-12-02T01:05:20.121Z,39.3
2017-12-02T01:06:22.045Z,39.5
2017-12-02T01:07:23.940Z,39.3
2017-12-02T01:08:25.559Z,39.3
2017-12-02T01:09:26.905Z,39.5
2017-12-02T01:10:28.800Z,39.4
2017-12-02T01:11:30.693Z,39.3
2017-12-02T01:12:31.735Z,39.4
2017-12-02T01:13:33.352Z,39.4
2017-12-02T01:14:34.970Z,39.4
2017-12-02T01:15:36.630Z,39.2
2017-12-02T01:16:37.661Z,39.7
2017-12-02T01:17:39.307Z,39.3
2017-12-02T01:18:40.923Z,39.3
2017-12-02T01:19:42.818Z,39.5
2017-12-02T01:20:44.455Z,39.5
2017-12-02T01:21:46.352Z,39.3
2017-12-02T01:22:47.696Z,39.1
2017-12-02T01:23:49.332Z,39.2
2017-12-02T01:24:50.652Z,39.4
2017-12-02T01:25:52.049Z,39.4
2017-12-02T01:26:53.040Z,39
2017-12-02T01:27:54.993Z,39.1
2017-12-02T01:28:56.616Z,39.5
2017-12-02T01:29:57.958Z,39.1
2017-12-02T01:30:58.725Z,39.5
2017-12-02T01:32:00.049Z,39.2
2017-12-02T01:33:01.367Z,39.3
2017-12-02T01:34:02.964Z,39.6
2017-12-02T01:35:04.316Z,39.2
2017-12-02T01:36:05.933Z,39.3
2017-12-02T01:37:07.253Z,39.3
2017-12-02T01:38:09.156Z,39.3
2017-12-02T01:39:10.775Z,39.3
2017-12-02T01:40:12.392Z,39.3
2017-12-02T01:41:14.286Z,39.4
2017-12-02T01:42:16.183Z,39.3
2017-12-02T01:43:18.077Z,39.1
2017-12-02T01:44:19.150Z,39.2
2017-12-02T01:45:20.498Z,39.2
2017-12-02T01:46:22.394Z,39.5
2017-12-02T01:47:23.708Z,39.5
2017-12-02T01:48:25.612Z,39.4
2017-12-02T01:49:26.950Z,39
2017-12-02T01:50:28.550Z,39.4
2017-12-02T01:51:30.448Z,39.1
2017-12-02T01:52:31.786Z,39.4
2017-12-02T01:53:33.385Z,39.2
2017-12-02T01:54:34.745Z,39.2
2017-12-02T01:55:36.662Z,39.3
2017-12-02T01:56:37.980Z,39.2
2017-12-02T01:57:39.598Z,39.2
2017-12-02T01:58:40.914Z,39.2
2017-12-02T01:59:42.812Z,39.2
2017-12-02T02:00:44.131Z,39.2
2017-12-02T02:01:45.470Z,39.5
2017-12-02T02:02:47.365Z,39.1
2017-12-02T02:03:48.713Z,39.1
2017-12-02T02:04:50.336Z,39.5
2017-12-02T02:05:51.956Z,39.5
2017-12-02T02:06:53.852Z,39.2
2017-12-02T02:07:55.469Z,39.5
2017-12-02T02:08:57.364Z,38.9
2017-12-02T02:09:58.982Z,39.2
2017-12-02T02:11:00.026Z,39.5
2017-12-02T02:12:01.624Z,39.2
2017-12-02T02:13:03.524Z,39.5
2017-12-02T02:14:04.840Z,39.4
2017-12-02T02:15:06.201Z,38.8
2017-12-02T02:16:07.828Z,39.1
2017-12-02T02:17:09.438Z,39.1
2017-12-02T02:18:10.777Z,39.6
2017-12-02T02:19:12.096Z,39.2
2017-12-02T02:20:13.712Z,39.2
2017-12-02T02:21:15.034Z,39.5
2017-12-02T02:22:16.650Z,39
2017-12-02T02:23:17.427Z,39.5
2017-12-02T02:24:19.043Z,39.1
2017-12-02T02:25:20.640Z,39.6
2017-12-02T02:26:21.982Z,38.7
2017-12-02T02:27:23.877Z,38.7
2017-12-02T02:28:25.774Z,38.9
2017-12-02T02:29:26.815Z,39.1
2017-12-02T02:30:28.433Z,39
2017-12-02T02:31:30.031Z,38.7
2017-12-02T02:32:31.380Z,38.8
2017-12-02T02:33:32.722Z,38.8
2017-12-02T02:34:34.615Z,38.9
2017-12-02T02:35:36.512Z,38.8
2017-12-02T02:36:38.127Z,39.1
2017-12-02T02:37:39.745Z,38.9
2017-12-02T02:38:41.638Z,38.8
2017-12-02T02:39:43.256Z,38.8
2017-12-02T02:40:44.923Z,39.4
2017-12-02T02:41:46.544Z,38.9
2017-12-02T02:42:48.161Z,38.9
2017-12-02T02:43:49.787Z,39.3
2017-12-02T02:44:51.686Z,39.5
2017-12-02T02:45:53.305Z,38.8
2017-12-02T02:46:55.200Z,39.5
2017-12-02T02:47:57.106Z,38.8
2017-12-02T02:48:58.704Z,38.8
2017-12-02T02:50:00.603Z,39.3
2017-12-02T02:51:02.218Z,38.8
2017-12-02T02:52:03.838Z,39.4
2017-12-02T02:53:05.745Z,39.3
2017-12-02T02:54:07.643Z,39.3
2017-12-02T02:55:09.241Z,38.8
2017-12-02T02:56:10.585Z,39.1
2017-12-02T02:57:11.911Z,38.8
2017-12-02T02:58:13.811Z,39.1
2017-12-02T02:59:15.407Z,38.8
2017-12-02T03:00:17.024Z,39
2017-12-02T03:01:18.643Z,39
2017-12-02T03:02:20.540Z,39.3
2017-12-02T03:03:22.160Z,39
2017-12-02T03:04:24.055Z,39
2017-12-02T03:05:25.674Z,39
2017-12-02T03:06:27.294Z,38.7
2017-12-02T03:07:28.635Z,39
2017-12-02T03:08:30.254Z,38.7
2017-12-02T03:09:32.149Z,38.9
2017-12-02T03:10:34.044Z,38.8
2017-12-02T03:11:35.661Z,39.3
2017-12-02T03:12:37.558Z,38.8
2017-12-02T03:13:39.174Z,39.3
2017-12-02T03:14:41.129Z,38.6
2017-12-02T03:15:42.749Z,38.7
2017-12-02T03:16:44.095Z,38.7
2017-12-02T03:17:45.131Z,39.3
2017-12-02T03:18:46.729Z,38.7
2017-12-02T03:19:48.398Z,38.6
2017-12-02T03:20:50.017Z,38.8
2017-12-02T03:21:51.636Z,38.9
2017-12-02T03:22:53.532Z,38.8
2017-12-02T03:23:55.427Z,38.9
2017-12-02T03:24:57.323Z,39.3
2017-12-02T03:25:58.920Z,38.9
2017-12-02T03:27:00.537Z,39.1
2017-12-02T03:28:02.154Z,38.7
2017-12-02T03:29:03.773Z,38.7
2017-12-02T03:30:05.395Z,39.3
2017-12-02T03:31:07.024Z,38.6
2017-12-02T03:32:08.642Z,38.7
2017-12-02T03:33:10.267Z,38.8
2017-12-02T03:34:11.881Z,38.8
2017-12-02T03:35:13.219Z,39.2
2017-12-02T03:36:15.117Z,39.1
2017-12-02T03:37:16.734Z,38.8
2017-12-02T03:38:18.353Z,38.7
2017-12-02T03:39:20.027Z,38.8
2017-12-02T03:40:21.671Z,39.4
2017-12-02T03:41:23.566Z,38.9
2017-12-02T03:42:25.187Z,38.9
2017-12-02T03:43:26.807Z,38.7
2017-12-02T03:44:28.444Z,38.9
2017-12-02T03:45:30.342Z,39.2
2017-12-02T03:46:31.407Z,38.9
2017-12-02T03:47:32.447Z,38.7
2017-12-02T03:48:34.057Z,39.2
2017-12-02T03:49:35.723Z,39.3
2017-12-02T03:50:36.759Z,38.9
2017-12-02T03:51:38.356Z,39.3
2017-12-02T03:52:39.974Z,38.6
2017-12-02T03:53:41.869Z,38.7
2017-12-02T03:54:43.765Z,38.9
2017-12-02T03:55:45.659Z,39.5
2017-12-02T03:56:47.277Z,39.4
2017-12-02T03:57:49.172Z,38.8
2017-12-02T03:58:50.790Z,38.9
2017-12-02T03:59:52.394Z,38.8
2017-12-02T04:00:54.013Z,38.9
2017-12-02T04:01:55.632Z,38.7
2017-12-02T04:02:57.226Z,39.2
2017-12-02T04:03:58.548Z,38.7
2017-12-02T04:04:59.310Z,38.9
2017-12-02T04:06:00.706Z,38.7
2017-12-02T04:07:02.325Z,39.3
2017-12-02T04:08:03.941Z,39.4
2017-12-02T04:09:05.837Z,38.8
2017-12-02T04:10:07.157Z,38.7
2017-12-02T04:11:08.505Z,39.2
2017-12-02T04:12:09.566Z,38.9
2017-12-02T04:13:11.464Z,38.7
2017-12-02T04:14:13.358Z,39.3
2017-12-02T04:15:14.954Z,39.3
2017-12-02T04:16:16.859Z,38.8
2017-12-02T04:17:18.755Z,38.9
2017-12-02T04:18:20.375Z,38.9
2017-12-02T04:19:21.694Z,38.8
2017-12-02T04:20:23.589Z,38.7
2017-12-02T04:21:25.208Z,39.3
2017-12-02T04:22:26.829Z,38.7
2017-12-02T04:23:28.171Z,38.7
2017-12-02T04:24:30.071Z,38.9
2017-12-02T04:25:31.413Z,39.3
2017-12-02T04:26:32.753Z,38.9
2017-12-02T04:27:34.369Z,39.4
2017-12-02T04:28:35.991Z,39.1
2017-12-02T04:29:37.585Z,38.8
2017-12-02T04:30:39.180Z,39.1
2017-12-02T04:31:40.501Z,38.8
2017-12-02T04:32:41.819Z,39.1
2017-12-02T04:33:43.718Z,38.8
2017-12-02T04:34:45.033Z,38.9
2017-12-02T04:35:46.648Z,38.7
2017-12-02T04:36:48.544Z,38.9
2017-12-02T04:37:50.441Z,38.9
2017-12-02T04:38:52.335Z,39.4
2017-12-02T04:39:53.664Z,39.3
2017-12-02T04:40:55.282Z,39.2
2017-12-02T04:41:56.903Z,39.3
2017-12-02T04:42:58.518Z,38.7
2017-12-02T04:44:00.115Z,38.7
2017-12-02T04:45:01.436Z,38.7
2017-12-02T04:46:03.053Z,39.2
2017-12-02T04:47:04.649Z,39.2
2017-12-02T04:48:06.275Z,39.2
2017-12-02T04:49:08.168Z,39.2
2017-12-02T04:50:09.512Z,39.2
2017-12-02T04:51:11.132Z,38.7
2017-12-02T04:52:12.447Z,38.9
2017-12-02T04:53:14.046Z,39.1
2017-12-02T04:54:15.700Z,39.2
2017-12-02T04:55:17.595Z,38.7
2017-12-02T04:56:18.639Z,38.9
2017-12-02T04:57:20.532Z,39.3
2017-12-02T04:58:21.576Z,39.2
2017-12-02T04:59:23.203Z,39.3
2017-12-02T05:00:25.089Z,38.7
2017-12-02T05:01:26.706Z,38.6
2017-12-02T05:02:28.601Z,38.7
2017-12-02T05:03:30.497Z,39.2
2017-12-02T05:04:32.091Z,38.7
2017-12-02T05:05:33.707Z,38.8
2017-12-02T05:06:35.304Z,39
2017-12-02T05:07:36.646Z,39
2017-12-02T05:08:38.544Z,39
2017-12-02T05:09:40.163Z,39.3
2017-12-02T05:10:42.055Z,38.9
2017-12-02T05:11:43.681Z,38.9
2017-12-02T05:12:45.012Z,38.9
2017-12-02T05:13:46.609Z,39
2017-12-02T05:14:48.505Z,38.7
2017-12-02T05:15:49.844Z,39
2017-12-02T05:16:51.460Z,39.2
2017-12-02T05:17:52.782Z,39
2017-12-02T05:18:54.680Z,39
2017-12-02T05:19:56.613Z,38.7
2017-12-02T05:20:58.508Z,39.3
2017-12-02T05:22:00.409Z,39.3
2017-12-02T05:23:01.758Z,38.7
2017-12-02T05:24:03.086Z,38.7
2017-12-02T05:25:04.422Z,39.3
2017-12-02T05:26:06.319Z,39.3
2017-12-02T05:27:08.217Z,39.3
2017-12-02T05:28:10.111Z,38.7
2017-12-02T05:29:11.191Z,38.7
2017-12-02T05:30:13.085Z,38.7
2017-12-02T05:31:14.404Z,38.6
2017-12-02T05:32:16.020Z,38.8
2017-12-02T05:33:17.928Z,39.3
2017-12-02T05:34:19.534Z,39.2
2017-12-02T05:35:21.130Z,39.2
2017-12-02T05:36:22.726Z,39.2
2017-12-02T05:37:24.346Z,39.3
2017-12-02T05:38:26.238Z,38.7
2017-12-02T05:39:27.576Z,38.7
2017-12-02T05:40:28.899Z,38.7
2017-12-02T05:41:30.518Z,38.7
2017-12-02T05:42:31.858Z,39.1
2017-12-02T05:43:33.477Z,39.3
2017-12-02T05:44:35.100Z,38.7
2017-12-02T05:45:36.775Z,38.9
2017-12-02T05:46:38.403Z,39.2
2017-12-02T05:47:40.023Z,38.8
2017-12-02T05:48:41.622Z,38.8
2017-12-02T05:49:43.216Z,39.3
2017-12-02T05:50:44.555Z,38.8
2017-12-02T05:51:46.453Z,38.8
2017-12-02T05:52:48.348Z,38.8
2017-12-02T05:53:49.945Z,38.8
2017-12-02T05:54:51.284Z,38.9
2017-12-02T05:55:52.903Z,38.8
2017-12-02T05:56:54.798Z,38.7
2017-12-02T05:57:56.428Z,39.3
2017-12-02T05:58:58.375Z,38.9
2017-12-02T05:59:59.974Z,38.8
2017-12-02T06:01:01.871Z,38.7
2017-12-02T06:02:03.514Z,38.9
2017-12-02T06:03:05.410Z,38.7
2017-12-02T06:04:07.007Z,38.7
2017-12-02T06:05:08.624Z,38.7
2017-12-02T06:06:10.520Z,38.8
2017-12-02T06:07:12.137Z,39
2017-12-02T06:08:14.033Z,38.6
2017-12-02T06:09:15.652Z,38.7
2017-12-02T06:10:17.551Z,38.6
2017-12-02T06:11:19.167Z,38.8
2017-12-02T06:12:20.789Z,38.8
2017-12-02T06:13:22.682Z,38.7
2017-12-02T06:14:24.301Z,39.3
2017-12-02T06:15:25.921Z,39.4
2017-12-02T06:16:27.536Z,38.7
2017-12-02T06:17:29.155Z,38.8
2017-12-02T06:18:30.523Z,38.7
2017-12-02T06:19:32.145Z,38.7
2017-12-02T06:20:33.768Z,38.8
2017-12-02T06:21:35.383Z,38.9
2017-12-02T06:22:36.992Z,38.7
2017-12-02T06:23:38.612Z,38.7
2017-12-02T06:24:39.930Z,38.7
2017-12-02T06:25:41.272Z,39.2
2017-12-02T06:26:42.892Z,38.8
2017-12-02T06:27:44.507Z,39.3
2017-12-02T06:28:46.401Z,38.8
2017-12-02T06:29:48.020Z,38.7
2017-12-02T06:30:49.362Z,39.2
2017-12-02T06:31:51.280Z,38.8
2017-12-02T06:32:52.325Z,38.8
2017-12-02T06:33:53.943Z,39.2
2017-12-02T06:34:55.838Z,38.6
2017-12-02T06:35:57.733Z,38.9
2017-12-02T06:36:59.628Z,38.9
2017-12-02T06:38:00.671Z,38.9
2017-12-02T06:39:02.291Z,38.9
2017-12-02T06:40:04.186Z,38.8
2017-12-02T06:41:06.080Z,38.8
2017-12-02T06:42:07.700Z,38.9
2017-12-02T06:43:09.326Z,38.8
2017-12-02T06:44:10.660Z,38.7
2017-12-02T06:45:12.282Z,39.1
2017-12-02T06:46:13.897Z,39.1
2017-12-02T06:47:15.233Z,38.8
2017-12-02T06:48:16.575Z,38.8
2017-12-02T06:49:18.175Z,39.2
2017-12-02T06:50:19.793Z,39.1
2017-12-02T06:51:21.412Z,38.9
2017-12-02T06:52:22.457Z,39
2017-12-02T06:53:23.775Z,39.2
2017-12-02T06:54:25.374Z,39.2
2017-12-02T06:55:26.696Z,39.2
2017-12-02T06:56:28.013Z,38.5
2017-12-02T06:57:29.332Z,38.9
2017-12-02T06:58:30.676Z,39.3
2017-12-02T06:59:32.572Z,38.8
2017-12-02T07:00:34.470Z,38.9
2017-12-02T07:01:36.090Z,38.9
2017-12-02T07:02:37.707Z,38.9
2017-12-02T07:03:39.324Z,38.9
2017-12-02T07:04:40.369Z,38.9
2017-12-02T07:05:41.690Z,38.5
2017-12-02T07:06:43.308Z,38.4
2017-12-02T07:07:44.922Z,38.8
2017-12-02T07:08:46.544Z,38.8
2017-12-02T07:09:48.486Z,39.1
2017-12-02T07:10:50.383Z,39
2017-12-02T07:11:51.722Z,39
2017-12-02T07:12:53.395Z,38.9
2017-12-02T07:13:54.704Z,38.5
2017-12-02T07:14:56.326Z,39.1
2017-12-02T07:15:57.926Z,39
2017-12-02T07:16:59.244Z,39.2
2017-12-02T07:18:00.011Z,38.5
2017-12-02T07:19:01.334Z,38.9
2017-12-02T07:20:03.235Z,38.9
2017-12-02T07:21:04.575Z,38.9
2017-12-02T07:22:06.470Z,38.8
2017-12-02T07:23:07.793Z,38.9
2017-12-02T07:24:09.110Z,39
2017-12-02T07:25:11.008Z,38.8
2017-12-02T07:26:12.625Z,38.5
2017-12-02T07:27:14.226Z,39.1
2017-12-02T07:28:16.158Z,38.4
2017-12-02T07:29:17.775Z,38.5
2017-12-02T07:30:19.120Z,38.5
2017-12-02T07:31:20.443Z,39
2017-12-02T07:32:21.785Z,39.2
2017-12-02T07:33:23.127Z,39
2017-12-02T07:34:24.453Z,39.1
2017-12-02T07:35:26.067Z,38.5
2017-12-02T07:36:27.963Z,39.3
2017-12-02T07:37:29.565Z,39.2
2017-12-02T07:38:31.476Z,39.2
2017-12-02T07:39:33.100Z,39
2017-12-02T07:40:34.704Z,38.5
2017-12-02T07:41:36.025Z,39.3
2017-12-02T07:42:37.348Z,38.9
2017-12-02T07:43:38.778Z,39.1
2017-12-02T07:44:40.671Z,39.1
2017-12-02T07:45:42.014Z,39.2
2017-12-02T07:46:43.638Z,39.2
2017-12-02T07:47:45.557Z,39
2017-12-02T07:48:47.175Z,38.9
2017-12-02T07:49:48.517Z,38.9
2017-12-02T07:50:50.417Z,38.6
2017-12-02T07:51:52.317Z,38.9
2017-12-02T07:52:54.214Z,38.9
2017-12-02T07:53:55.566Z,38.9
2017-12-02T07:54:57.463Z,39
2017-12-02T07:55:58.787Z,39.1
2017-12-02T07:57:00.404Z,38.7
2017-12-02T07:58:01.721Z,38.8
2017-12-02T07:59:03.046Z,38.8
2017-12-02T08:00:04.942Z,38.5
2017-12-02T08:01:06.837Z,39.1
2017-12-02T08:02:08.434Z,38.6
2017-12-02T08:03:10.034Z,39.2
2017-12-02T08:04:11.701Z,39.1
2017-12-02T08:05:13.040Z,38.8
2017-12-02T08:06:14.933Z,38.8
2017-12-02T08:07:16.551Z,38.9
2017-12-02T08:08:18.448Z,38.8
2017-12-02T08:09:19.795Z,38.8
2017-12-02T08:10:21.684Z,38.8
2017-12-02T08:11:23.304Z,39
2017-12-02T08:12:24.925Z,38.9
2017-12-02T08:13:26.549Z,38.8
2017-12-02T08:14:28.169Z,38.7
2017-12-02T08:15:30.062Z,38.9
2017-12-02T08:16:31.685Z,39
2017-12-02T08:17:32.791Z,38.8
2017-12-02T08:18:34.121Z,38.8
2017-12-02T08:19:36.074Z,38.8
2017-12-02T08:20:37.422Z,38.9
2017-12-02T08:21:39.317Z,39
2017-12-02T08:22:40.918Z,39
2017-12-02T08:23:42.535Z,38.7
2017-12-02T08:24:44.432Z,38.7
2017-12-02T08:25:46.329Z,39.1
2017-12-02T08:26:47.677Z,39.1
2017-12-02T08:27:49.021Z,39.1
2017-12-02T08:28:50.640Z,38.6
2017-12-02T08:29:52.538Z,39.1
2017-12-02T08:30:53.602Z,39.1
2017-12-02T08:31:55.224Z,39.2
2017-12-02T08:32:56.542Z,39.2
2017-12-02T08:33:57.882Z,38.9
2017-12-02T08:34:59.481Z,38.9
2017-12-02T08:36:01.100Z,38.8
2017-12-02T08:37:02.995Z,39
2017-12-02T08:38:04.612Z,39.2
2017-12-02T08:39:05.654Z,38.5
2017-12-02T08:40:07.553Z,39.2
2017-12-02T08:41:08.870Z,38.6
2017-12-02T08:42:10.215Z,39.2
2017-12-02T08:43:11.816Z,38.8
2017-12-02T08:44:13.714Z,38.7
2017-12-02T08:45:15.608Z,38.8
2017-12-02T08:46:16.933Z,38.8
2017-12-02T08:47:18.556Z,38.6
2017-12-02T08:48:20.183Z,38.8
2017-12-02T08:49:22.136Z,38.8
2017-12-02T08:50:24.035Z,38.8
2017-12-02T08:51:25.358Z,38.9
2017-12-02T08:52:26.976Z,38.8
2017-12-02T08:53:28.875Z,38.8
2017-12-02T08:54:30.819Z,38.8
2017-12-02T08:55:31.867Z,38.8
2017-12-02T08:56:33.763Z,38.8
2017-12-02T08:57:35.381Z,38.8
2017-12-02T08:58:37.281Z,38.8
2017-12-02T08:59:38.901Z,38.8
2017-12-02T09:00:40.222Z,38.7
2017-12-02T09:01:42.118Z,38.8
2017-12-02T09:02:43.436Z,38.8
2017-12-02T09:03:45.333Z,38.9
2017-12-02T09:04:46.657Z,38.8
2017-12-02T09:05:48.317Z,38.9
2017-12-02T09:06:49.920Z,38.7
2017-12-02T09:07:51.541Z,38.8
2017-12-02T09:08:53.157Z,38.8
2017-12-02T09:09:55.054Z,38.8
2017-12-02T09:10:56.948Z,38.8
2017-12-02T09:11:58.566Z,38.9
2017-12-02T09:12:59.900Z,38.8
2017-12-02T09:14:01.531Z,38.7
2017-12-02T09:15:03.148Z,38.9
2017-12-02T09:16:04.766Z,38.9
2017-12-02T09:17:06.089Z,38.7
2017-12-02T09:18:08.040Z,38.9
2017-12-02T09:19:09.071Z,38.4
2017-12-02T09:20:10.689Z,38.7
2017-12-02T09:21:12.586Z,38.4
2017-12-02T09:22:13.633Z,38.4
2017-12-02T09:23:15.252Z,38.5
2017-12-02T09:24:16.874Z,38.8
2017-12-02T09:25:18.494Z,38.8
2017-12-02T09:26:19.837Z,38.5
2017-12-02T09:27:21.458Z,38.9
2017-12-02T09:28:23.352Z,38.4
2017-12-02T09:29:25.248Z,38.8
2017-12-02T09:30:26.869Z,38.6
2017-12-02T09:31:28.188Z,38.5
2017-12-02T09:32:30.087Z,38.4
2017-12-02T09:33:31.984Z,38.3
2017-12-02T09:34:33.302Z,38.4
2017-12-02T09:35:34.900Z,38.5
2017-12-02T09:36:36.799Z,38.4
2017-12-02T09:37:37.860Z,38.2
2017-12-02T09:38:39.754Z,38.2
2017-12-02T09:39:41.372Z,38.5
2017-12-02T09:40:42.718Z,38.3
2017-12-02T09:41:44.041Z,38.4
2017-12-02T09:42:45.083Z,38.2
2017-12-02T09:43:46.980Z,38.4
2017-12-02T09:44:48.322Z,38.4
2017-12-02T09:45:49.939Z,38.6
2017-12-02T09:46:51.558Z,38.3
2017-12-02T09:47:53.159Z,38.4
2017-12-02T09:48:54.759Z,38.3
2017-12-02T09:49:56.102Z,38.4
2017-12-02T09:50:57.446Z,38.7
2017-12-02T09:51:59.044Z,38.4
2017-12-02T09:53:00.366Z,38.6
2017-12-02T09:54:01.980Z,38.5
2017-12-02T09:55:03.878Z,38.6
2017-12-02T09:56:05.480Z,38.5
2017-12-02T09:57:07.099Z,38.4
2017-12-02T09:58:08.994Z,38.5
2017-12-02T09:59:10.056Z,38.5
2017-12-02T10:00:11.380Z,38.4
2017-12-02T10:01:12.721Z,38.6
2017-12-02T10:02:14.338Z,38.5
2017-12-02T10:03:15.104Z,38.4
2017-12-02T10:04:17.012Z,38.7
2017-12-02T10:05:18.902Z,38.4
2017-12-02T10:06:20.247Z,38.5
2017-12-02T10:07:21.843Z,38.7
2017-12-02T10:08:23.457Z,38.5
2017-12-02T10:09:25.076Z,38.3
2017-12-02T10:10:26.695Z,38.6
2017-12-02T10:11:28.015Z,38.7
2017-12-02T10:12:29.916Z,38.5
2017-12-02T10:13:31.534Z,38.4
2017-12-02T10:14:33.151Z,38.3
2017-12-02T10:15:34.773Z,38.4
2017-12-02T10:16:36.099Z,38.4
2017-12-02T10:17:37.718Z,38.4
2017-12-02T10:18:39.041Z,38.4
2017-12-02T10:19:40.766Z,38.5
2017-12-02T10:20:42.382Z,38.1
2017-12-02T10:21:43.446Z,37.9
2017-12-02T10:22:44.833Z,37.9
2017-12-02T10:23:46.455Z,38.3
2017-12-02T10:24:48.356Z,38.4
2017-12-02T10:25:49.953Z,38.5
2017-12-02T10:26:51.853Z,38.5
2017-12-02T10:27:53.449Z,38.3
2017-12-02T10:28:54.777Z,38.1
2017-12-02T10:29:56.413Z,38.5
2017-12-02T10:30:58.312Z,38
2017-12-02T10:31:59.357Z,38.4
2017-12-02T10:33:00.700Z,37.9
2017-12-02T10:34:02.596Z,38
2017-12-02T10:35:04.495Z,38
2017-12-02T10:36:06.116Z,38.4
2017-12-02T10:37:08.015Z,38.2
2017-12-02T10:38:09.393Z,38.4
2017-12-02T10:39:10.718Z,38
2017-12-02T10:40:12.616Z,38.3
2017-12-02T10:41:14.519Z,38.3
2017-12-02T10:42:16.138Z,38.4
2017-12-02T10:43:18.037Z,38.1
2017-12-02T10:44:19.653Z,38.3
2017-12-02T10:45:21.274Z,38.4
2017-12-02T10:46:22.874Z,38.4
2017-12-02T10:47:24.199Z,38.2
2017-12-02T10:48:26.299Z,38.2
2017-12-02T10:49:27.914Z,38.3
2017-12-02T10:50:28.683Z,38.2
2017-12-02T10:51:30.287Z,38.2
2017-12-02T10:52:31.604Z,38.3
2017-12-02T10:53:33.212Z,38.2
2017-12-02T10:54:35.103Z,38.1
2017-12-02T10:55:36.999Z,38.2
2017-12-02T10:56:38.898Z,38.2
2017-12-02T10:57:40.796Z,38.1
2017-12-02T10:58:42.116Z,38.1
2017-12-02T10:59:44.013Z,38.2
2017-12-02T11:00:45.616Z,38.1
2017-12-02T11:01:47.232Z,38.4
2017-12-02T11:02:48.568Z,38.4
2017-12-02T11:03:50.182Z,38.3
2017-12-02T11:04:51.525Z,38.3
2017-12-02T11:05:53.472Z,38.3
2017-12-02T11:06:55.091Z,38.4
2017-12-02T11:07:56.689Z,38.2
2017-12-02T11:08:58.031Z,38
2017-12-02T11:09:59.372Z,38.2
2017-12-02T11:11:00.692Z,38.4
2017-12-02T11:12:01.758Z,38.2
2017-12-02T11:13:03.654Z,38.2
2017-12-02T11:14:05.275Z,38.2
2017-12-02T11:15:07.168Z,38.1
2017-12-02T11:16:08.791Z,38.2
2017-12-02T11:17:10.415Z,38
2017-12-02T11:18:11.753Z,38.1
2017-12-02T11:19:13.370Z,38.5
2017-12-02T11:20:14.970Z,38.4
2017-12-02T11:21:16.015Z,38.4
2017-12-02T11:22:17.356Z,38
2017-12-02T11:23:18.975Z,38.1
2017-12-02T11:24:20.602Z,38.1
2017-12-02T11:25:22.220Z,38.2
2017-12-02T11:26:24.123Z,38.2
2017-12-02T11:27:25.741Z,38.3
2017-12-02T11:28:27.638Z,38.4
2017-12-02T11:29:28.976Z,38.4
2017-12-02T11:30:30.295Z,38.4
2017-12-02T11:31:32.191Z,38.1
2017-12-02T11:32:33.789Z,38.5
2017-12-02T11:33:35.686Z,38.5
2017-12-02T11:34:37.025Z,37.9
2017-12-02T11:35:38.643Z,38.1
2017-12-02T11:36:39.963Z,38.1
2017-12-02T11:37:41.308Z,38.2
2017-12-02T11:38:43.204Z,38.4
2017-12-02T11:39:45.102Z,38.2
2017-12-02T11:40:46.722Z,38.2
2017-12-02T11:41:48.624Z,38.1
2017-12-02T11:42:50.220Z,38.4
2017-12-02T11:43:51.839Z,38
2017-12-02T11:44:53.440Z,38.2
2017-12-02T11:45:55.064Z,38.2
2017-12-02T11:46:56.660Z,38
2017-12-02T11:47:57.977Z,38.4
2017-12-02T11:48:59.875Z,38.4
2017-12-02T11:50:00.917Z,38.1
2017-12-02T11:51:02.258Z,38.5
2017-12-02T11:52:03.880Z,38.4
2017-12-02T11:53:04.944Z,38.6
2017-12-02T11:54:06.562Z,38.3
2017-12-02T11:55:08.457Z,38.2
2017-12-02T11:56:10.077Z,38.3
2017-12-02T11:57:12.023Z,38.1
2017-12-02T11:58:13.644Z,38.2
2017-12-02T11:59:15.540Z,38.3
2017-12-02T12:00:17.438Z,38.2
2017-12-02T12:01:19.058Z,38.3
2017-12-02T12:02:20.679Z,38.5
2017-12-02T12:03:22.579Z,38.2
2017-12-02T12:04:23.905Z,38.6
2017-12-02T12:05:25.248Z,38.6
2017-12-02T12:06:26.870Z,38.4
2017-12-02T12:07:28.242Z,38.7
2017-12-02T12:08:30.147Z,38.4
2017-12-02T12:09:32.045Z,38.6
2017-12-02T12:10:33.660Z,38.6
2017-12-02T12:11:35.557Z,38
2017-12-02T12:12:37.180Z,38.3
2017-12-02T12:13:38.224Z,38.3
2017-12-02T12:14:39.847Z,38.4
2017-12-02T12:15:41.484Z,38.4
2017-12-02T12:16:42.794Z,38.5
2017-12-02T12:17:44.393Z,38.6
2017-12-02T12:18:46.017Z,38.6
2017-12-02T12:19:47.913Z,38
2017-12-02T12:20:49.234Z,38.7
2017-12-02T12:21:50.854Z,38.5
2017-12-02T12:22:52.473Z,38.3
2017-12-02T12:23:53.815Z,38.4
2017-12-02T12:24:55.709Z,38.4
2017-12-02T12:25:57.329Z,38.3
2017-12-02T12:26:58.374Z,38.3
2017-12-02T12:27:59.699Z,38
2017-12-02T12:29:01.595Z,38.3
2017-12-02T12:30:03.209Z,38.3
2017-12-02T12:31:04.829Z,38.4
2017-12-02T12:32:06.728Z,38.6
2017-12-02T12:33:07.771Z,38.6
2017-12-02T12:34:09.092Z,38.2
2017-12-02T12:35:10.438Z,38
2017-12-02T12:36:11.775Z,38.6
2017-12-02T12:37:13.672Z,38.2
2017-12-02T12:38:15.608Z,38.6
2017-12-02T12:39:17.225Z,38.4
2017-12-02T12:40:19.124Z,38
2017-12-02T12:41:20.448Z,38.6
2017-12-02T12:42:21.788Z,38.5
2017-12-02T12:43:23.404Z,38
2017-12-02T12:44:25.300Z,38.6
2017-12-02T12:45:27.198Z,38.4
2017-12-02T12:46:28.817Z,38.5
2017-12-02T12:47:30.715Z,38.4
2017-12-02T12:48:32.612Z,38.4
2017-12-02T12:49:34.230Z,38.4
2017-12-02T12:50:36.129Z,38.5
2017-12-02T12:51:37.724Z,38.2
2017-12-02T12:52:39.318Z,38.4
2017-12-02T12:53:40.661Z,38.6
2017-12-02T12:54:42.284Z,38.2
2017-12-02T12:55:43.605Z,38.4
2017-12-02T12:56:45.222Z,38.3
2017-12-02T12:57:46.847Z,38.2
2017-12-02T12:58:48.744Z,38.2
2017-12-02T12:59:50.344Z,38.1
2017-12-02T13:00:52.242Z,38.6
2017-12-02T13:01:53.565Z,38.2
2017-12-02T13:02:55.168Z,38.3
2017-12-02T13:03:56.886Z,38.4
2017-12-02T13:04:58.783Z,38.1
2017-12-02T13:06:00.688Z,38.2
2017-12-02T13:07:01.729Z,38.3
2017-12-02T13:08:03.623Z,38.4
2017-12-02T13:09:05.239Z,38.3
2017-12-02T13:10:06.836Z,38.5
2017-12-02T13:11:08.457Z,38.4
2017-12-02T13:12:09.499Z,38.3
2017-12-02T13:13:11.120Z,38.4
2017-12-02T13:14:12.739Z,38.4
2017-12-02T13:15:14.339Z,38.2
2017-12-02T13:16:15.961Z,38.3
2017-12-02T13:17:17.007Z,38.3
2017-12-02T13:18:18.904Z,38.1
2017-12-02T13:19:20.798Z,38.2
2017-12-02T13:20:22.423Z,38.3
2017-12-02T13:21:24.020Z,38.3
2017-12-02T13:22:25.636Z,38.1
2017-12-02T13:23:26.402Z,38.2
2017-12-02T13:24:28.306Z,38.1
2017-12-02T13:25:29.924Z,38.2
2017-12-02T13:26:30.973Z,38.4
2017-12-02T13:27:32.295Z,38.3
2017-12-02T13:28:33.913Z,38.3
2017-12-02T13:29:34.956Z,38.3
2017-12-02T13:30:36.574Z,38.3
2017-12-02T13:31:38.469Z,38.3
2017-12-02T13:32:40.071Z,38.3
2017-12-02T13:33:41.696Z,38.3
2017-12-02T13:34:42.740Z,38.1
2017-12-02T13:35:44.360Z,38.2
2017-12-02T13:36:46.263Z,38.2
2017-12-02T13:37:47.858Z,38.4
2017-12-02T13:38:49.758Z,38.4
2017-12-02T13:39:51.377Z,38
2017-12-02T13:40:52.722Z,38.3
2017-12-02T13:41:54.043Z,38.5
2017-12-02T13:42:55.943Z,38.1